createdAt,value
2023-01-28T00:03:24.426Z,5.10
2023-01-28T00:07:25.647Z,5.03
2023-01-28T00:11:26.830Z,4.50
2023-01-28T00:15:28.006Z,5.33
2023-01-28T00:19:29.175Z,5.07
2023-01-28T00:23:35.638Z,5.70
2023-01-28T00:27:36.836Z,5.53
2023-01-28T00:31:40.305Z,5.33
2023-01-28T00:35:41.689Z,5.40
2023-01-28T00:39:42.841Z,4.80
2023-01-28T00:43:44.624Z,4.93
2023-01-28T00:47:47.696Z,5.93
2023-01-28T00:51:48.750Z,5.10
2023-01-28T00:55:50.235Z,5.50
2023-01-28T00:59:53.226Z,6.13
2023-01-28T01:03:59.579Z,5.30
2023-01-28T01:08:00.681Z,5.67
2023-01-28T01:12:01.967Z,5.33
2023-01-28T01:16:17.779Z,5.63
2023-01-28T01:20:22.104Z,5.50
2023-01-28T01:24:23.342Z,5.47
2023-01-28T01:28:24.547Z,5.80
2023-01-28T01:32:31.193Z,6.40
2023-01-28T01:36:32.374Z,5.70
2023-01-28T01:40:33.829Z,5.77
2023-01-28T01:44:57.270Z,5.40
2023-01-28T01:49:02.257Z,5.83
2023-01-28T01:53:07.507Z,4.90
2023-01-28T01:57:12.393Z,4.77
2023-01-28T02:01:13.649Z,5.20
2023-01-28T02:05:18.416Z,4.97
2023-01-28T02:09:35.485Z,5.10
2023-01-28T02:13:43.429Z,5.60
2023-01-28T02:17:45.478Z,6.50
2023-01-28T02:22:05.362Z,7.33
2023-01-28T02:26:25.166Z,6.07
2023-01-28T02:30:30.217Z,4.93
2023-01-28T02:34:53.288Z,5.80
2023-01-28T02:38:57.775Z,5.40
2023-01-28T02:43:01.361Z,5.10
2023-01-28T02:47:21.065Z,5.97
2023-01-28T02:51:26.040Z,6.40
2023-01-28T02:55:58.285Z,7.20
2023-01-28T03:00:03.250Z,5.67
2023-01-28T03:04:11.179Z,5.80
2023-01-28T03:08:31.939Z,4.70
2023-01-28T03:12:53.639Z,5.53
2023-01-28T03:17:17.055Z,6.00
2023-01-28T03:21:58.799Z,5.80
2023-01-28T03:26:21.879Z,5.40
2023-01-28T03:30:46.227Z,5.77
2023-01-28T03:35:06.318Z,5.70
2023-01-28T03:39:07.714Z,7.80
2023-01-28T03:43:08.897Z,5.33
2023-01-28T03:47:11.610Z,5.33
2023-01-28T03:51:12.741Z,5.80
2023-01-28T03:55:14.594Z,5.03
2023-01-28T03:59:16.077Z,6.30
2023-01-28T04:03:19.332Z,6.00
2023-01-28T04:07:20.576Z,6.60
2023-01-28T04:11:23.654Z,5.50
2023-01-28T04:15:24.863Z,5.10
2023-01-28T04:19:27.514Z,4.50
2023-01-28T04:23:31.425Z,6.37
2023-01-28T04:27:32.883Z,5.73
2023-01-28T04:31:34.432Z,6.07
2023-01-28T04:35:35.596Z,6.23
2023-01-28T04:39:36.781Z,6.07
2023-01-28T04:43:37.928Z,5.37
2023-01-28T04:47:39.105Z,4.93
2023-01-28T04:51:41.078Z,5.30
2023-01-28T04:55:44.528Z,5.20
2023-01-28T04:59:45.723Z,5.33
2023-01-28T05:03:46.895Z,5.40
2023-01-28T05:07:55.939Z,6.07
2023-01-28T05:11:57.089Z,6.13
2023-01-28T05:15:58.328Z,6.20
2023-01-28T05:19:59.388Z,5.83
2023-01-28T05:24:01.278Z,5.40
2023-01-28T05:28:03.726Z,5.50
2023-01-28T05:32:05.053Z,6.20
2023-01-28T05:36:06.570Z,5.50
2023-01-28T05:40:10.449Z,5.53
2023-01-28T05:44:11.697Z,5.30
2023-01-28T05:48:13.692Z,5.03
2023-01-28T05:52:14.862Z,5.33
2023-01-28T05:56:16.014Z,5.13
2023-01-28T06:00:18.257Z,4.20
2023-01-28T06:04:19.582Z,5.23
2023-01-28T06:08:20.857Z,5.30
2023-01-28T06:12:22.071Z,4.37
2023-01-28T06:16:23.229Z,4.07
2023-01-28T06:20:24.634Z,4.53
2023-01-28T06:24:26.681Z,4.50
2023-01-28T06:28:27.979Z,4.40
2023-01-28T06:32:29.255Z,4.47
2023-01-28T06:36:30.392Z,4.73
2023-01-28T06:40:35.680Z,5.30
2023-01-28T06:44:36.836Z,5.27
2023-01-28T06:48:38.071Z,4.10
2023-01-28T06:52:41.024Z,4.40
2023-01-28T06:56:42.293Z,4.97
2023-01-28T07:00:43.492Z,4.40
2023-01-28T07:04:44.677Z,4.03
2023-01-28T07:08:46.654Z,4.93
2023-01-28T07:12:47.831Z,4.40
2023-01-28T07:16:49.021Z,4.40
2023-01-28T07:20:50.187Z,4.50
2023-01-28T07:24:51.545Z,4.60
2023-01-28T07:28:52.695Z,4.80
2023-01-28T07:32:55.989Z,4.97
2023-01-28T07:36:57.602Z,4.53
2023-01-28T07:40:58.858Z,4.53
2023-01-28T07:45:00.001Z,6.80
2023-01-28T07:49:01.667Z,4.77
2023-01-28T07:53:06.565Z,6.70
2023-01-28T07:57:11.348Z,4.80
2023-01-28T08:01:14.193Z,5.37
2023-01-28T08:05:17.958Z,4.90
2023-01-28T08:09:19.176Z,4.93
2023-01-28T08:13:20.537Z,5.80
2023-01-28T08:17:21.703Z,5.50
2023-01-28T08:21:23.078Z,4.93
2023-01-28T08:25:24.280Z,5.67
2023-01-28T08:29:25.418Z,4.87
2023-01-28T08:33:26.901Z,5.20
2023-01-28T08:37:28.158Z,4.70
2023-01-28T08:41:30.328Z,7.73
2023-01-28T08:45:31.808Z,5.60
2023-01-28T08:49:33.067Z,4.80
2023-01-28T08:53:34.233Z,4.23
2023-01-28T08:57:35.399Z,6.17
2023-01-28T09:01:36.876Z,4.80
2023-01-28T09:05:38.293Z,4.57
2023-01-28T09:09:39.454Z,4.23
2023-01-28T09:13:40.607Z,4.77
2023-01-28T09:17:41.872Z,4.80
2023-01-28T09:21:43.020Z,4.33
2023-01-28T09:25:44.387Z,5.03
2023-01-28T09:29:45.546Z,5.60
2023-01-28T09:33:47.829Z,7.27
2023-01-28T09:37:49.296Z,5.90
2023-01-28T09:42:03.430Z,7.00
2023-01-28T09:46:06.492Z,6.50
2023-01-28T09:50:17.718Z,6.73
2023-01-28T09:54:22.832Z,5.27
2023-01-28T09:58:24.088Z,6.13
2023-01-28T10:02:43.804Z,4.30
2023-01-28T10:06:51.851Z,5.30
2023-01-28T10:11:05.376Z,5.40
2023-01-28T10:15:45.330Z,5.23
2023-01-28T10:19:50.692Z,5.10
2023-01-28T10:24:04.929Z,5.50
2023-01-28T10:28:09.885Z,5.33
2023-01-28T10:32:17.879Z,5.20
2023-01-28T10:36:19.952Z,4.37
2023-01-28T10:40:21.617Z,3.93
2023-01-28T10:44:38.847Z,5.03
2023-01-28T10:48:43.811Z,4.47
2023-01-28T10:53:00.344Z,6.00
2023-01-28T10:57:04.667Z,5.77
2023-01-28T11:01:07.164Z,5.93
2023-01-28T11:05:26.639Z,4.43
2023-01-28T11:09:36.678Z,5.23
2023-01-28T11:13:41.656Z,4.23
2023-01-28T11:17:48.061Z,4.00
2023-01-28T11:21:53.122Z,5.13
2023-01-28T11:26:04.339Z,4.30
2023-01-28T11:30:08.403Z,3.97
2023-01-28T11:34:13.435Z,4.67
2023-01-28T11:38:18.422Z,4.93
2023-01-28T11:42:21.648Z,3.60
2023-01-28T11:46:50.694Z,4.53
2023-01-28T11:50:59.199Z,4.60
2023-01-28T11:55:22.272Z,4.90
2023-01-28T11:59:30.292Z,5.13
2023-01-28T12:03:47.886Z,5.83
2023-01-28T12:07:56.314Z,5.00
2023-01-28T12:12:11.138Z,6.10
2023-01-28T12:16:37.527Z,6.90
2023-01-28T12:20:54.652Z,6.90
2023-01-28T12:25:06.033Z,7.20
2023-01-28T12:29:28.203Z,5.60
2023-01-28T12:33:41.558Z,4.13
2023-01-28T12:37:46.489Z,7.83
2023-01-28T12:41:57.861Z,6.03
2023-01-28T12:46:12.545Z,6.50
2023-01-28T12:50:33.060Z,7.90
2023-01-28T12:54:44.865Z,5.97
2023-01-28T12:58:59.400Z,5.40
2023-01-28T13:03:10.790Z,5.83
2023-01-28T13:07:19.206Z,6.00
2023-01-28T13:11:21.335Z,9.40
2023-01-28T13:15:23.481Z,5.80
2023-01-28T13:19:28.912Z,5.07
2023-01-28T13:23:39.636Z,5.07
2023-01-28T13:27:40.742Z,5.10
2023-01-28T13:31:45.360Z,6.50
2023-01-28T13:35:50.309Z,6.70
2023-01-28T13:39:55.172Z,5.50
2023-01-28T13:43:58.319Z,6.97
2023-01-28T13:48:06.329Z,6.70
2023-01-28T13:52:11.701Z,5.47
2023-01-28T13:56:32.926Z,4.53
2023-01-28T14:00:47.278Z,5.10
2023-01-28T14:04:55.753Z,5.10
2023-01-28T14:09:23.317Z,5.13
2023-01-28T14:13:32.291Z,3.80
2023-01-28T14:17:55.358Z,4.43
2023-01-28T14:21:56.904Z,5.67
2023-01-28T14:26:20.174Z,7.27
2023-01-28T14:30:31.208Z,5.00
2023-01-28T14:34:34.816Z,4.83
2023-01-28T14:38:39.172Z,5.20
2023-01-28T14:42:42.946Z,6.10
2023-01-28T14:46:47.950Z,7.50
2023-01-28T14:51:02.356Z,5.53
2023-01-28T14:55:19.680Z,6.47
2023-01-28T14:59:24.699Z,6.00
2023-01-28T15:03:28.642Z,6.83
2023-01-28T15:07:29.714Z,6.57
2023-01-28T15:11:31.085Z,5.83
2023-01-28T15:15:45.063Z,6.90
2023-01-28T15:19:46.811Z,7.30
2023-01-28T15:23:54.715Z,7.23
2023-01-28T15:27:59.331Z,11.90
2023-01-28T15:32:01.849Z,8.40
2023-01-28T15:36:04.834Z,8.47
2023-01-28T15:40:06.528Z,7.33
2023-01-28T15:44:17.032Z,7.87
2023-01-28T15:48:18.206Z,6.23
2023-01-28T15:52:21.680Z,6.53
2023-01-28T15:56:28.653Z,7.67
2023-01-28T16:00:31.471Z,9.90
2023-01-28T16:04:32.765Z,6.60
2023-01-28T16:08:52.667Z,6.23
2023-01-28T16:13:06.445Z,8.00
2023-01-28T16:17:08.004Z,8.00
2023-01-28T16:21:12.071Z,7.57
2023-01-28T16:25:29.625Z,9.07
2023-01-28T16:29:31.676Z,6.53
2023-01-28T16:33:32.986Z,8.90
2023-01-28T16:37:34.174Z,7.47
2023-01-28T16:41:41.820Z,8.50
2023-01-28T16:45:43.079Z,9.40
2023-01-28T16:49:44.227Z,11.43
2023-01-28T16:53:47.162Z,11.03
2023-01-28T16:57:52.295Z,12.57
2023-01-28T17:01:53.452Z,8.70
2023-01-28T17:05:54.649Z,9.30
2023-01-28T17:09:55.985Z,11.63
2023-01-28T17:13:57.357Z,8.33
2023-01-28T17:17:58.509Z,8.10
2023-01-28T17:21:59.673Z,7.60
2023-01-28T17:26:06.245Z,7.70
2023-01-28T17:30:08.684Z,8.47
2023-01-28T17:34:11.661Z,12.53
2023-01-28T17:38:12.841Z,9.30
2023-01-28T17:42:15.924Z,10.73
2023-01-28T17:46:18.379Z,8.70
2023-01-28T17:50:19.529Z,10.23
2023-01-28T17:54:22.585Z,8.80
2023-01-28T17:58:23.776Z,11.90
2023-01-28T18:02:25.090Z,8.90
2023-01-28T18:06:31.319Z,10.23
2023-01-28T18:10:32.480Z,12.00
2023-01-28T18:14:34.532Z,11.73
2023-01-28T18:18:35.698Z,11.67
2023-01-28T18:22:37.117Z,6.70
2023-01-28T18:26:38.235Z,8.80
2023-01-28T18:30:39.408Z,10.30
2023-01-28T18:34:40.560Z,8.87
2023-01-28T18:38:41.743Z,9.20
2023-01-28T18:42:42.912Z,9.30
2023-01-28T18:46:44.068Z,13.60
2023-01-28T18:50:55.236Z,15.33
2023-01-28T18:54:56.919Z,17.30
2023-01-28T18:59:00.751Z,16.63
2023-01-28T19:03:02.286Z,11.97
2023-01-28T19:07:03.481Z,11.70
2023-01-28T19:11:04.655Z,13.73
2023-01-28T19:15:07.291Z,14.17
2023-01-28T19:19:08.344Z,18.00
2023-01-28T19:23:11.164Z,18.00
2023-01-28T19:27:12.358Z,21.70
2023-01-28T19:31:13.622Z,20.03
2023-01-28T19:35:15.365Z,14.80
2023-01-28T19:39:17.824Z,11.50
2023-01-28T19:43:19.999Z,12.33
2023-01-28T19:47:21.558Z,15.00
2023-01-28T19:51:23.350Z,13.73
2023-01-28T19:55:24.543Z,13.23
2023-01-28T19:59:25.722Z,14.00
2023-01-28T20:03:26.856Z,12.67
2023-01-28T20:07:28.036Z,13.30
2023-01-28T20:11:29.663Z,12.00
2023-01-28T20:15:30.871Z,11.93
2023-01-28T20:19:33.985Z,12.70
2023-01-28T20:23:35.115Z,14.90
2023-01-28T20:27:36.161Z,15.10
2023-01-28T20:31:38.842Z,13.20
2023-01-28T20:35:40.171Z,11.40
2023-01-28T20:39:41.356Z,12.93
2023-01-28T20:43:43.930Z,13.80
2023-01-28T20:47:45.026Z,13.80
2023-01-28T20:51:46.205Z,13.70
2023-01-28T20:55:57.909Z,13.80
2023-01-28T20:59:59.063Z,16.30
2023-01-28T21:04:01.013Z,16.40
2023-01-28T21:08:02.283Z,15.33
2023-01-28T21:12:03.840Z,16.43
2023-01-28T21:16:05.893Z,14.57
2023-01-28T21:20:08.583Z,11.67
2023-01-28T21:24:11.221Z,10.50
2023-01-28T21:28:12.965Z,9.43
2023-01-28T21:32:15.083Z,11.33
2023-01-28T21:36:17.203Z,11.80
2023-01-28T21:40:18.902Z,12.30
2023-01-28T21:44:20.130Z,8.83
2023-01-28T21:48:21.291Z,10.63
2023-01-28T21:52:22.925Z,10.50
2023-01-28T21:56:24.063Z,10.87
2023-01-28T22:00:25.288Z,9.00
2023-01-28T22:04:32.080Z,13.73
2023-01-28T22:08:33.222Z,19.30
2023-01-28T22:12:34.372Z,16.00
2023-01-28T22:16:35.683Z,9.90
2023-01-28T22:20:36.785Z,10.20
2023-01-28T22:24:37.962Z,12.97
2023-01-28T22:28:39.114Z,13.57
2023-01-28T22:32:40.353Z,13.17
2023-01-28T22:36:42.107Z,9.70
2023-01-28T22:40:43.193Z,9.27
2023-01-28T22:44:44.353Z,8.33
2023-01-28T22:48:46.726Z,9.27
2023-01-28T22:52:47.859Z,9.27
2023-01-28T22:56:49.050Z,7.33
2023-01-28T23:00:50.199Z,7.53
2023-01-28T23:04:51.273Z,7.90
2023-01-28T23:08:53.528Z,8.13
2023-01-28T23:12:54.678Z,7.17
2023-01-28T23:17:14.393Z,6.90
2023-01-28T23:21:40.129Z,6.20
2023-01-28T23:25:41.444Z,7.37
2023-01-28T23:29:42.574Z,6.87
2023-01-28T23:33:43.789Z,7.53
2023-01-28T23:37:45.768Z,7.37
2023-01-28T23:41:46.910Z,6.30
2023-01-28T23:45:48.084Z,6.90
2023-01-28T23:49:49.227Z,7.13
2023-01-28T23:53:50.381Z,6.00
2023-01-28T23:57:51.441Z,6.67
